createdAt,value
2019-04-30T00:00:46.310Z,6.00
2019-04-30T00:06:27.398Z,5.87
2019-04-30T00:09:09.707Z,5.97
2019-04-30T00:11:50.718Z,6.23
2019-04-30T00:14:36.990Z,6.80
2019-04-30T00:17:15.863Z,6.70
2019-04-30T00:19:59.713Z,6.57
2019-04-30T00:22:39.344Z,6.40
2019-04-30T00:25:26.900Z,7.17
2019-04-30T00:28:05.258Z,6.60
2019-04-30T00:30:47.817Z,6.80
2019-04-30T00:33:28.490Z,6.60
2019-04-30T00:36:09.358Z,7.13
2019-04-30T00:38:50.127Z,7.47
2019-04-30T00:41:30.573Z,6.93
2019-04-30T00:44:11.330Z,7.60
2019-04-30T00:46:52.420Z,7.87
2019-04-30T00:49:34.982Z,7.87
2019-04-30T00:52:15.879Z,7.37
2019-04-30T00:55:00.351Z,7.77
2019-04-30T00:57:43.630Z,7.60
2019-04-30T01:00:28.060Z,6.77
2019-04-30T01:03:09.419Z,7.30
2019-04-30T01:05:48.563Z,8.23
2019-04-30T01:08:29.040Z,6.47
2019-04-30T01:11:09.763Z,6.40
2019-04-30T01:13:51.018Z,6.73
2019-04-30T01:16:33.203Z,7.13
2019-04-30T01:19:27.587Z,6.90
2019-04-30T01:21:56.135Z,6.40
2019-04-30T01:24:38.652Z,8.00
2019-04-30T01:27:19.595Z,6.87
2019-04-30T01:30:00.573Z,6.53
2019-04-30T01:32:41.259Z,7.07
2019-04-30T01:35:23.797Z,6.87
2019-04-30T01:38:08.564Z,7.00
2019-04-30T01:40:47.416Z,7.10
2019-04-30T01:43:33.168Z,6.87
2019-04-30T01:46:13.882Z,6.80
2019-04-30T01:48:54.338Z,7.47
2019-04-30T01:51:35.122Z,7.23
2019-04-30T01:54:20.784Z,7.37
2019-04-30T02:00:11.947Z,6.90
2019-04-30T02:02:52.531Z,7.23
2019-04-30T02:05:33.370Z,7.27
2019-04-30T02:08:14.168Z,8.37
2019-04-30T02:10:54.681Z,7.70
2019-04-30T02:13:35.107Z,7.10
2019-04-30T02:16:15.829Z,8.03
2019-04-30T02:18:56.836Z,7.33
2019-04-30T02:21:38.560Z,7.53
2019-04-30T02:24:19.733Z,7.40
2019-04-30T02:27:00.860Z,7.63
2019-04-30T02:29:41.833Z,7.40
2019-04-30T02:32:22.867Z,7.20
2019-04-30T02:38:15.854Z,7.07
2019-04-30T02:40:56.122Z,7.43
2019-04-30T02:43:36.817Z,7.10
2019-04-30T02:46:19.243Z,7.30
2019-04-30T02:49:00.153Z,7.37
2019-04-30T02:51:40.767Z,7.30
2019-04-30T02:54:24.013Z,7.37
2019-04-30T02:57:05.886Z,8.47
2019-04-30T03:00:06.131Z,7.90
2019-04-30T03:02:46.656Z,7.10
2019-04-30T03:05:27.166Z,7.20
2019-04-30T03:08:09.577Z,7.93
2019-04-30T03:10:49.959Z,8.53
2019-04-30T03:13:32.253Z,8.93
2019-04-30T03:16:14.603Z,8.00
2019-04-30T03:19:00.077Z,9.00
2019-04-30T03:21:44.651Z,8.57
2019-04-30T03:24:25.065Z,8.73
2019-04-30T03:27:05.641Z,8.77
2019-04-30T03:32:52.294Z,10.00
2019-04-30T03:35:31.765Z,9.57
2019-04-30T03:38:10.713Z,9.07
2019-04-30T03:40:51.434Z,9.83
2019-04-30T03:43:32.183Z,9.83
2019-04-30T03:46:12.613Z,10.47
2019-04-30T03:48:53.101Z,9.77
2019-04-30T03:51:21.526Z,9.73
2019-04-30T03:54:10.271Z,8.67
2019-04-30T03:59:34.728Z,9.77
2019-04-30T04:02:41.664Z,10.30
2019-04-30T04:14:21.943Z,11.80
2019-04-30T04:17:09.960Z,14.97
2019-04-30T04:19:39.846Z,15.43
2019-04-30T04:22:30.303Z,16.87
2019-04-30T04:25:20.113Z,18.90
2019-04-30T04:28:06.564Z,19.00
2019-04-30T04:30:54.314Z,18.73
2019-04-30T04:33:42.076Z,19.47
2019-04-30T04:36:30.371Z,19.93
2019-04-30T04:39:20.163Z,20.50
2019-04-30T04:42:10.134Z,21.30
2019-04-30T04:44:59.520Z,22.90
2019-04-30T04:47:50.193Z,22.43
2019-04-30T04:50:39.778Z,23.27
2019-04-30T04:53:26.412Z,23.97
2019-04-30T04:56:14.210Z,22.83
2019-04-30T04:59:01.958Z,22.60
2019-04-30T05:01:49.749Z,23.93
2019-04-30T05:04:39.991Z,24.77
2019-04-30T05:07:28.660Z,23.93
2019-04-30T05:10:19.092Z,24.60
2019-04-30T05:15:42.044Z,24.13
2019-04-30T05:18:29.801Z,23.23
2019-04-30T05:21:18.837Z,21.53
2019-04-30T05:24:08.954Z,23.10
2019-04-30T05:26:49.349Z,22.53
2019-04-30T05:29:19.067Z,20.67
2019-04-30T05:32:07.229Z,22.70
2019-04-30T05:34:55.001Z,22.63
2019-04-30T05:37:23.406Z,22.03
2019-04-30T05:40:11.172Z,22.23
2019-04-30T05:43:00.427Z,22.27
2019-04-30T05:45:49.131Z,22.77
2019-04-30T05:48:39.600Z,23.80
2019-04-30T05:51:28.908Z,23.93
2019-04-30T05:54:16.868Z,24.43
2019-04-30T05:57:04.614Z,23.87
2019-04-30T05:59:52.494Z,24.87
2019-04-30T06:02:40.226Z,25.20
2019-04-30T06:05:28.575Z,24.93
2019-04-30T06:11:45.250Z,25.90
2019-04-30T06:14:52.276Z,25.73
2019-04-30T06:20:38.917Z,25.17
2019-04-30T06:23:19.612Z,25.13
2019-04-30T06:26:09.380Z,25.77
2019-04-30T06:28:42.608Z,24.73
2019-04-30T06:31:32.385Z,26.23
2019-04-30T06:34:05.996Z,25.07
2019-04-30T06:36:53.146Z,25.30
2019-04-30T06:39:29.529Z,25.03
2019-04-30T06:42:12.802Z,24.70
2019-04-30T06:44:52.886Z,25.07
2019-04-30T06:47:33.575Z,24.47
2019-04-30T06:50:14.197Z,25.00
2019-04-30T06:52:58.798Z,24.43
2019-04-30T06:55:36.846Z,24.47
2019-04-30T06:58:20.480Z,22.63
2019-04-30T07:01:01.163Z,23.40
2019-04-30T07:03:41.776Z,24.27
2019-04-30T07:06:29.648Z,24.27
2019-04-30T07:09:11.780Z,23.67
2019-04-30T07:12:27.338Z,23.63
2019-04-30T07:14:49.446Z,22.43
2019-04-30T07:17:19.550Z,22.17
2019-04-30T07:19:54.168Z,23.57
2019-04-30T07:22:20.671Z,22.17
2019-04-30T07:24:49.680Z,19.70
2019-04-30T07:27:23.374Z,20.57
2019-04-30T07:29:49.528Z,19.93
2019-04-30T07:32:19.757Z,19.40
2019-04-30T07:34:49.484Z,19.97
2019-04-30T07:37:24.180Z,20.80
2019-04-30T07:39:49.307Z,19.23
2019-04-30T07:42:19.263Z,19.10
2019-04-30T07:44:50.013Z,18.60
2019-04-30T07:47:19.423Z,19.00
2019-04-30T07:49:54.915Z,18.37
2019-04-30T07:52:20.956Z,18.83
2019-04-30T07:54:51.516Z,17.40
2019-04-30T07:57:19.359Z,18.00
2019-04-30T07:59:49.948Z,16.57
2019-04-30T08:02:20.769Z,15.57
2019-04-30T08:04:52.512Z,15.40
2019-04-30T08:07:20.964Z,13.97
2019-04-30T08:09:49.548Z,15.70
2019-04-30T08:12:26.127Z,15.33
2019-04-30T08:14:49.625Z,13.27
2019-04-30T08:17:18.915Z,14.23
2019-04-30T08:19:48.991Z,13.73
2019-04-30T08:22:19.465Z,13.13
2019-04-30T08:24:49.152Z,13.13
2019-04-30T08:27:19.623Z,13.93
2019-04-30T08:29:49.863Z,13.43
2019-04-30T08:32:19.104Z,12.63
2019-04-30T08:34:49.958Z,13.03
2019-04-30T08:37:20.101Z,12.60
2019-04-30T08:39:49.697Z,13.27
2019-04-30T08:42:29.019Z,13.60
2019-04-30T08:44:48.618Z,13.37
2019-04-30T08:47:18.781Z,12.60
2019-04-30T08:49:49.186Z,11.93
2019-04-30T08:52:19.398Z,12.73
2019-04-30T08:54:49.471Z,13.37
2019-04-30T08:57:19.102Z,12.40
2019-04-30T08:59:49.449Z,12.57
2019-04-30T09:02:19.741Z,13.57
2019-04-30T09:04:50.180Z,13.17
2019-04-30T09:07:19.698Z,13.10
2019-04-30T09:09:48.872Z,13.80
2019-04-30T09:12:19.440Z,12.60
2019-04-30T09:14:49.099Z,12.30
2019-04-30T09:17:19.715Z,11.37
2019-04-30T09:19:48.992Z,11.93
2019-04-30T09:22:19.310Z,11.47
2019-04-30T09:24:49.507Z,11.77
2019-04-30T09:27:19.527Z,12.77
2019-04-30T09:29:49.263Z,13.13
2019-04-30T09:32:19.318Z,12.83
2019-04-30T09:34:48.847Z,12.70
2019-04-30T09:37:18.702Z,12.00
2019-04-30T09:39:49.462Z,11.80
2019-04-30T09:42:19.571Z,12.17
2019-04-30T09:44:49.299Z,11.30
2019-04-30T09:47:19.907Z,11.97
2019-04-30T09:49:49.408Z,12.73
2019-04-30T09:52:19.329Z,11.60
2019-04-30T09:54:49.897Z,12.43
2019-04-30T09:57:19.361Z,11.45
2019-04-30T09:59:48.643Z,11.28
2019-04-30T10:02:19.183Z,11.08
2019-04-30T10:04:48.324Z,12.43
2019-04-30T10:07:17.140Z,13.22
2019-04-30T10:09:45.590Z,11.45
2019-04-30T10:12:19.399Z,11.68
2019-04-30T10:14:49.277Z,13.13
2019-04-30T10:17:27.703Z,11.68
2019-04-30T10:19:56.120Z,11.95
2019-04-30T10:22:24.538Z,11.50
2019-04-30T10:24:53.024Z,12.25
2019-04-30T10:27:21.517Z,13.15
2019-04-30T10:29:49.940Z,13.13
2019-04-30T10:32:18.782Z,11.55
2019-04-30T10:34:47.444Z,11.73
2019-04-30T10:37:16.130Z,12.30
2019-04-30T10:39:44.833Z,12.73
2019-04-30T10:42:13.239Z,11.63
2019-04-30T10:44:41.656Z,12.30
2019-04-30T10:47:10.168Z,11.90
2019-04-30T10:49:39.038Z,12.25
2019-04-30T10:52:09.335Z,11.25
2019-04-30T10:54:38.887Z,11.93
2019-04-30T10:57:08.673Z,11.08
2019-04-30T10:59:37.299Z,11.28
2019-04-30T11:02:05.957Z,12.30
2019-04-30T11:04:34.385Z,11.57
2019-04-30T11:07:02.851Z,12.45
2019-04-30T11:09:32.527Z,12.18
2019-04-30T11:12:03.054Z,10.98
2019-04-30T11:14:31.363Z,12.70
2019-04-30T11:17:00.268Z,11.93
2019-04-30T11:19:29.401Z,12.00
2019-04-30T11:21:58.174Z,11.97
2019-04-30T11:24:35.880Z,11.53
2019-04-30T11:26:59.425Z,11.50
2019-04-30T11:29:30.573Z,12.37
2019-04-30T11:32:17.178Z,11.05
2019-04-30T11:34:45.797Z,11.78
2019-04-30T11:37:14.288Z,11.83
2019-04-30T11:39:42.707Z,11.60
2019-04-30T11:42:11.197Z,9.78
2019-04-30T11:44:40.351Z,10.55
2019-04-30T11:47:14.405Z,11.40
2019-04-30T11:49:42.827Z,10.72
2019-04-30T11:52:11.300Z,12.10
2019-04-30T11:54:49.156Z,11.85
2019-04-30T11:57:10.146Z,11.63
2019-04-30T11:59:39.572Z,11.55
2019-04-30T12:02:09.799Z,11.40
2019-04-30T12:04:39.317Z,10.90
2019-04-30T12:07:27.140Z,10.05
2019-04-30T12:09:57.216Z,10.55
2019-04-30T12:12:25.889Z,11.05
2019-04-30T12:14:54.292Z,10.30
2019-04-30T12:17:22.729Z,10.20
2019-04-30T12:19:51.227Z,10.88
2019-04-30T12:22:20.306Z,11.75
2019-04-30T12:24:56.313Z,12.10
2019-04-30T12:27:19.045Z,12.25
2019-04-30T12:29:49.450Z,12.95
2019-04-30T12:32:19.211Z,12.73
2019-04-30T12:34:47.837Z,14.55
2019-04-30T12:37:16.272Z,14.98
2019-04-30T12:39:44.857Z,17.95
2019-04-30T12:42:13.280Z,21.82
2019-04-30T12:44:41.689Z,20.45
2019-04-30T12:47:10.144Z,21.75
2019-04-30T12:50:00.877Z,20.82
2019-04-30T12:52:29.761Z,23.00
2019-04-30T12:55:15.256Z,21.27
2019-04-30T12:57:55.538Z,22.48
2019-04-30T13:00:14.625Z,22.27
2019-04-30T13:02:43.118Z,22.07
2019-04-30T13:05:12.364Z,23.05
2019-04-30T13:07:41.400Z,23.73
2019-04-30T13:10:11.465Z,23.87
2019-04-30T13:12:40.586Z,25.35
2019-04-30T13:15:10.561Z,25.95
2019-04-30T13:17:39.012Z,25.12
2019-04-30T13:20:18.185Z,25.32
2019-04-30T13:22:38.941Z,25.55
2019-04-30T13:25:09.175Z,26.12
2019-04-30T13:27:39.705Z,24.37
2019-04-30T13:30:20.258Z,23.18
2019-04-30T13:32:51.779Z,25.10
2019-04-30T13:35:20.236Z,25.48
2019-04-30T13:37:50.320Z,24.43
2019-04-30T13:40:20.450Z,25.95
2019-04-30T13:42:50.517Z,25.32
2019-04-30T13:45:20.747Z,25.08
2019-04-30T13:47:49.345Z,25.72
2019-04-30T13:50:19.733Z,24.25
2019-04-30T13:52:48.925Z,24.20
2019-04-30T13:55:19.202Z,24.18
2019-04-30T13:57:47.549Z,26.17
2019-04-30T14:00:21.294Z,25.88
2019-04-30T14:02:51.454Z,24.80
2019-04-30T14:05:19.862Z,25.62
2019-04-30T14:08:01.768Z,25.45
2019-04-30T14:10:31.849Z,26.95
2019-04-30T14:13:01.452Z,26.33
2019-04-30T14:15:29.940Z,25.72
2019-04-30T14:17:59.690Z,26.07
2019-04-30T14:20:28.348Z,26.87
2019-04-30T14:22:57.588Z,25.90
2019-04-30T14:25:26.136Z,24.47
2019-04-30T14:27:54.987Z,24.47
2019-04-30T14:30:23.819Z,23.83
2019-04-30T14:32:52.238Z,24.95
2019-04-30T14:35:20.689Z,23.62
2019-04-30T14:37:49.650Z,24.15
2019-04-30T14:40:20.354Z,24.83
2019-04-30T14:42:58.815Z,24.53
2019-04-30T14:45:28.640Z,26.13
2019-04-30T14:48:14.096Z,26.20
2019-04-30T14:50:42.981Z,26.87
2019-04-30T14:53:15.783Z,26.30
2019-04-30T14:55:49.537Z,25.80
2019-04-30T14:58:22.629Z,27.83
2019-04-30T15:01:01.396Z,28.60
2019-04-30T15:03:31.473Z,28.17
2019-04-30T15:06:00.116Z,28.77
2019-04-30T15:08:29.295Z,27.97
2019-04-30T15:10:57.847Z,27.43
2019-04-30T15:13:26.261Z,26.17
2019-04-30T15:15:54.696Z,28.13
2019-04-30T15:18:23.176Z,28.43
2019-04-30T15:20:51.858Z,26.93
2019-04-30T15:23:21.992Z,27.00
2019-04-30T15:25:50.458Z,27.60
2019-04-30T15:28:19.098Z,27.83
2019-04-30T15:30:48.840Z,27.90
2019-04-30T15:33:24.820Z,27.60
2019-04-30T15:35:53.266Z,27.77
2019-04-30T15:38:23.321Z,27.00
2019-04-30T15:40:51.819Z,27.87
2019-04-30T15:43:20.373Z,28.83
2019-04-30T15:45:49.465Z,26.63
2019-04-30T15:48:19.531Z,28.67
2019-04-30T15:50:49.249Z,29.17
2019-04-30T15:53:19.378Z,27.47
2019-04-30T15:55:47.901Z,27.87
2019-04-30T15:58:23.571Z,27.37
2019-04-30T16:00:51.977Z,26.47
2019-04-30T16:03:25.050Z,26.10
2019-04-30T16:05:55.129Z,26.20
2019-04-30T16:08:25.193Z,27.10
2019-04-30T16:10:58.536Z,26.03
2019-04-30T16:13:39.468Z,24.93
2019-04-30T16:16:09.137Z,26.60
2019-04-30T16:18:49.327Z,28.07
2019-04-30T16:21:19.368Z,26.50
2019-04-30T16:23:49.020Z,27.53
2019-04-30T16:26:17.638Z,27.43
2019-04-30T16:28:46.068Z,27.67
2019-04-30T16:31:14.589Z,26.77
2019-04-30T16:33:43.021Z,26.30
2019-04-30T16:36:11.431Z,26.83
2019-04-30T16:38:39.869Z,26.47
2019-04-30T16:41:08.913Z,27.80
2019-04-30T16:43:38.835Z,26.57
2019-04-30T16:46:07.360Z,26.13
2019-04-30T16:48:35.801Z,28.37
2019-04-30T16:51:04.376Z,27.03
2019-04-30T16:53:32.921Z,26.33
2019-04-30T16:56:01.356Z,26.57
2019-04-30T16:58:31.435Z,27.67
2019-04-30T17:00:59.996Z,28.13
2019-04-30T17:03:35.540Z,26.87
2019-04-30T17:06:11.507Z,27.00
2019-04-30T17:08:41.624Z,27.13
2019-04-30T17:11:17.797Z,27.93
2019-04-30T17:13:47.865Z,26.40
2019-04-30T17:16:20.694Z,26.33
2019-04-30T17:18:50.660Z,26.77
2019-04-30T17:21:19.811Z,26.67
2019-04-30T17:23:50.681Z,26.47
2019-04-30T17:26:18.389Z,26.30
2019-04-30T17:28:46.821Z,26.83
2019-04-30T17:31:15.304Z,28.40
2019-04-30T17:33:43.732Z,27.77
2019-04-30T17:36:12.169Z,27.77
2019-04-30T17:38:40.657Z,28.27
2019-04-30T17:41:09.077Z,28.50
2019-04-30T17:43:39.485Z,29.87
2019-04-30T17:46:07.657Z,31.23
2019-04-30T17:48:36.169Z,31.63
2019-04-30T17:51:04.603Z,33.83
2019-04-30T17:53:34.108Z,35.73
2019-04-30T17:56:02.556Z,35.47
2019-04-30T17:58:30.972Z,34.70
2019-04-30T18:01:01.149Z,36.63
2019-04-30T18:03:29.584Z,36.47
2019-04-30T18:05:59.210Z,35.97
2019-04-30T18:08:27.775Z,36.87
2019-04-30T18:10:56.180Z,37.97
2019-04-30T18:13:24.609Z,36.43
2019-04-30T18:15:53.012Z,36.77
2019-04-30T18:18:23.096Z,36.43
2019-04-30T18:21:09.097Z,36.13
2019-04-30T18:23:58.559Z,34.93
2019-04-30T18:26:27.147Z,34.80
2019-04-30T18:28:55.561Z,34.63
2019-04-30T18:31:24.035Z,35.77
2019-04-30T18:33:52.463Z,37.07
2019-04-30T18:36:20.883Z,35.63
2019-04-30T18:38:50.276Z,36.80
2019-04-30T18:41:19.362Z,36.53
2019-04-30T18:43:48.718Z,36.07
2019-04-30T18:46:19.055Z,35.63
2019-04-30T18:48:49.312Z,35.93
2019-04-30T18:51:32.884Z,35.77
2019-04-30T18:53:49.382Z,36.53
2019-04-30T18:56:19.144Z,35.30
2019-04-30T18:58:48.674Z,36.53
2019-04-30T19:01:17.339Z,35.93
2019-04-30T19:03:46.509Z,34.87
2019-04-30T19:06:23.809Z,35.57
2019-04-30T19:08:58.705Z,37.10
2019-04-30T19:11:35.522Z,35.43
2019-04-30T19:14:19.328Z,36.73
2019-04-30T19:16:55.077Z,36.93
2019-04-30T19:19:25.367Z,36.13
2019-04-30T19:21:53.904Z,37.57
2019-04-30T19:24:22.336Z,36.53
2019-04-30T19:26:50.750Z,37.87
2019-04-30T19:29:19.177Z,39.07
2019-04-30T19:31:49.347Z,40.07
2019-04-30T19:34:17.902Z,38.10
2019-04-30T19:36:46.305Z,41.17
2019-04-30T19:39:16.588Z,41.27
2019-04-30T19:41:45.068Z,41.63
2019-04-30T19:44:13.543Z,41.80
2019-04-30T19:46:42.013Z,40.97
2019-04-30T19:49:10.445Z,43.77
2019-04-30T19:51:40.199Z,43.77
2019-04-30T19:54:11.207Z,44.93
2019-04-30T19:56:39.270Z,43.93
2019-04-30T19:59:08.722Z,43.80
2019-04-30T20:01:39.091Z,46.13
2019-04-30T20:04:09.701Z,41.83
2019-04-30T20:06:38.639Z,42.57
2019-04-30T20:09:08.955Z,41.73
2019-04-30T20:11:37.324Z,43.13
2019-04-30T20:14:05.811Z,41.47
2019-04-30T20:16:35.851Z,41.93
2019-04-30T20:19:05.211Z,41.67
2019-04-30T20:21:45.809Z,41.43
2019-04-30T20:24:04.010Z,42.43
2019-04-30T20:26:32.429Z,43.60
2019-04-30T20:29:00.837Z,45.23
2019-04-30T20:31:29.255Z,45.13
2019-04-30T20:34:01.297Z,43.77
2019-04-30T20:36:29.182Z,45.30
2019-04-30T20:39:01.954Z,46.50
2019-04-30T20:41:32.004Z,46.93
2019-04-30T20:44:00.420Z,47.27
2019-04-30T20:46:32.654Z,49.07
2019-04-30T20:48:59.360Z,47.83
2019-04-30T20:51:29.063Z,49.20
2019-04-30T20:53:59.193Z,51.30
2019-04-30T20:56:29.158Z,51.97
2019-04-30T20:59:02.625Z,53.47
2019-04-30T21:01:29.410Z,55.17
2019-04-30T21:03:58.009Z,53.53
2019-04-30T21:06:26.445Z,55.40
2019-04-30T21:08:54.856Z,55.77
2019-04-30T21:11:23.291Z,54.80
2019-04-30T21:13:51.696Z,56.93
2019-04-30T21:16:20.124Z,56.07
2019-04-30T21:18:48.560Z,56.77
2019-04-30T21:21:18.593Z,57.80
2019-04-30T21:23:49.068Z,56.07
2019-04-30T21:26:17.265Z,58.27
2019-04-30T21:28:45.688Z,57.73
2019-04-30T21:31:31.782Z,60.20
2019-04-30T21:34:19.581Z,58.10
2019-04-30T21:36:49.579Z,59.90
2019-04-30T21:39:19.984Z,60.53
2019-04-30T21:41:49.427Z,61.23
2019-04-30T21:44:18.008Z,61.57
2019-04-30T21:46:46.433Z,60.00
2019-04-30T21:49:14.865Z,61.27
2019-04-30T21:51:43.276Z,59.30
2019-04-30T21:54:11.705Z,60.20
2019-04-30T21:56:40.376Z,59.47
2019-04-30T21:59:08.823Z,57.20
2019-04-30T22:01:37.305Z,56.80
2019-04-30T22:04:05.708Z,54.83
2019-04-30T22:06:34.139Z,54.10
2019-04-30T22:09:02.697Z,57.60
2019-04-30T22:11:31.144Z,56.30
2019-04-30T22:13:59.568Z,55.60
2019-04-30T22:16:29.745Z,54.93
2019-04-30T22:18:58.306Z,51.70
2019-04-30T22:21:28.286Z,54.63
2019-04-30T22:23:56.875Z,54.47
2019-04-30T22:26:25.300Z,50.33
2019-04-30T22:28:53.744Z,50.07
2019-04-30T22:31:22.163Z,52.00
2019-04-30T22:33:50.593Z,46.43
2019-04-30T22:36:35.696Z,45.77
2019-04-30T22:39:23.488Z,46.57
2019-04-30T22:41:55.097Z,48.03
2019-04-30T22:44:23.523Z,46.93
2019-04-30T22:46:51.987Z,43.90
2019-04-30T22:49:20.396Z,42.40
2019-04-30T22:51:48.844Z,43.07
2019-04-30T22:54:17.332Z,42.07
2019-04-30T22:56:45.749Z,42.23
2019-04-30T22:59:14.180Z,42.30
2019-04-30T23:01:52.935Z,42.90
2019-04-30T23:04:35.071Z,42.07
2019-04-30T23:07:03.501Z,43.37
2019-04-30T23:09:31.924Z,41.53
2019-04-30T23:12:00.348Z,41.77
2019-04-30T23:14:28.772Z,41.73
2019-04-30T23:16:57.233Z,41.23
2019-04-30T23:19:25.631Z,37.37
2019-04-30T23:21:54.333Z,36.50
2019-04-30T23:24:22.732Z,35.37
2019-04-30T23:26:51.385Z,34.37
2019-04-30T23:29:19.835Z,32.27
2019-04-30T23:31:48.245Z,33.37
2019-04-30T23:34:18.128Z,34.93
2019-04-30T23:36:46.854Z,34.67
2019-04-30T23:39:15.344Z,34.13
2019-04-30T23:41:43.776Z,32.53
2019-04-30T23:44:12.204Z,34.87
2019-04-30T23:46:40.647Z,34.20
2019-04-30T23:49:09.068Z,33.07
2019-04-30T23:51:37.565Z,34.67
2019-04-30T23:54:05.979Z,34.50
2019-04-30T23:56:34.410Z,36.00
2019-04-30T23:59:02.880Z,35.93
